createdAt,value
2023-04-16T00:01:27.497Z,3.63
2023-04-16T00:03:54.818Z,4.68
2023-04-16T00:06:21.599Z,4.68
2023-04-16T00:08:48.226Z,7.72
2023-04-16T00:11:15.421Z,9.05
2023-04-16T00:13:42.089Z,5.70
2023-04-16T00:16:08.763Z,5.63
2023-04-16T00:18:35.800Z,5.32
2023-04-16T00:21:02.421Z,11.80
2023-04-16T00:23:29.133Z,6.53
2023-04-16T00:25:59.844Z,4.75
2023-04-16T00:28:27.732Z,1.98
2023-04-16T00:30:54.973Z,4.03
2023-04-16T00:33:21.774Z,5.53
2023-04-16T00:35:48.759Z,9.15
2023-04-16T00:38:15.403Z,6.38
2023-04-16T00:40:42.018Z,3.90
2023-04-16T00:43:08.711Z,5.13
2023-04-16T00:45:35.962Z,4.45
2023-04-16T00:48:03.107Z,6.80
2023-04-16T00:50:30.044Z,5.32
2023-04-16T00:52:57.075Z,5.72
2023-04-16T00:55:23.687Z,7.43
2023-04-16T00:57:50.441Z,6.20
2023-04-16T01:00:17.299Z,4.60
2023-04-16T01:02:44.052Z,2.72
2023-04-16T01:05:10.736Z,8.40
2023-04-16T01:07:37.238Z,3.35
2023-04-16T01:10:04.352Z,5.00
2023-04-16T01:12:31.186Z,7.03
2023-04-16T01:14:57.977Z,2.97
2023-04-16T01:17:24.642Z,10.73
2023-04-16T01:19:51.237Z,7.22
2023-04-16T01:22:17.792Z,6.00
2023-04-16T01:24:45.217Z,7.32
2023-04-16T01:27:11.794Z,5.72
2023-04-16T01:29:38.324Z,12.95
2023-04-16T01:32:05.002Z,9.00
2023-04-16T01:34:36.119Z,7.72
2023-04-16T01:37:06.921Z,15.80
2023-04-16T01:39:39.568Z,5.88
2023-04-16T01:42:19.227Z,10.30
2023-04-16T01:44:52.555Z,15.07
2023-04-16T01:47:19.240Z,9.32
2023-04-16T01:49:48.374Z,12.77
2023-04-16T01:52:19.857Z,17.10
2023-04-16T01:54:46.915Z,10.68
2023-04-16T01:57:13.732Z,13.07
2023-04-16T01:59:42.678Z,10.65
2023-04-16T02:02:25.373Z,9.20
2023-04-16T02:05:04.860Z,15.85
2023-04-16T02:07:36.681Z,13.77
2023-04-16T02:10:07.286Z,16.73
2023-04-16T02:12:33.881Z,10.50
2023-04-16T02:15:33.016Z,10.50
2023-04-16T02:18:06.753Z,13.15
2023-04-16T02:20:46.105Z,12.73
2023-04-16T02:23:15.174Z,9.43
2023-04-16T02:25:52.031Z,12.68
2023-04-16T02:28:21.666Z,13.13
2023-04-16T02:30:48.403Z,15.98
2023-04-16T02:33:22.026Z,12.95
2023-04-16T02:35:48.896Z,12.20
2023-04-16T02:38:18.151Z,7.93
2023-04-16T02:40:44.819Z,10.80
2023-04-16T02:43:14.716Z,17.00
2023-04-16T02:45:41.385Z,22.40
2023-04-16T02:48:10.383Z,8.90
2023-04-16T02:50:40.173Z,9.30
2023-04-16T02:53:10.850Z,10.38
2023-04-16T02:55:55.491Z,13.52
2023-04-16T02:58:26.110Z,8.23
2023-04-16T03:01:25.258Z,11.88
2023-04-16T03:03:56.747Z,14.82
2023-04-16T03:06:32.709Z,11.35
2023-04-16T03:08:59.399Z,12.25
2023-04-16T03:11:48.358Z,11.68
2023-04-16T03:14:23.934Z,16.15
2023-04-16T03:16:50.650Z,13.32
2023-04-16T03:19:17.441Z,10.85
2023-04-16T03:21:44.165Z,18.63
2023-04-16T03:24:14.055Z,11.50
2023-04-16T03:26:40.852Z,12.52
2023-04-16T03:29:15.205Z,14.18
2023-04-16T03:31:44.669Z,16.23
2023-04-16T03:34:21.681Z,16.67
2023-04-16T03:36:50.416Z,17.17
2023-04-16T03:39:20.657Z,13.88
2023-04-16T03:41:48.755Z,17.40
2023-04-16T03:44:15.778Z,21.00
2023-04-16T03:46:46.906Z,11.48
2023-04-16T03:49:17.515Z,12.90
2023-04-16T03:51:44.476Z,14.73
2023-04-16T03:54:15.313Z,12.48
2023-04-16T03:56:44.203Z,12.38
2023-04-16T03:59:31.274Z,9.40
2023-04-16T04:02:03.809Z,17.38
2023-04-16T04:04:48.294Z,7.00
2023-04-16T04:07:23.838Z,24.37
2023-04-16T04:09:56.093Z,11.13
2023-04-16T04:12:22.759Z,12.13
2023-04-16T04:14:57.046Z,20.05
2023-04-16T04:17:26.242Z,13.95
2023-04-16T04:20:01.386Z,12.05
2023-04-16T04:22:28.482Z,13.65
2023-04-16T04:24:55.195Z,11.40
2023-04-16T04:27:28.946Z,13.40
2023-04-16T04:29:56.938Z,10.70
2023-04-16T04:32:29.366Z,14.48
2023-04-16T04:34:56.348Z,16.05
2023-04-16T04:37:26.839Z,16.35
2023-04-16T04:39:55.958Z,17.17
2023-04-16T04:42:31.472Z,21.00
2023-04-16T04:45:08.042Z,19.98
2023-04-16T04:47:59.000Z,22.00
2023-04-16T04:50:32.822Z,15.45
2023-04-16T04:53:05.329Z,11.68
2023-04-16T04:55:42.314Z,14.38
2023-04-16T04:58:14.558Z,11.02
2023-04-16T05:00:42.816Z,10.80
2023-04-16T05:03:19.293Z,14.02
2023-04-16T05:05:46.027Z,19.38
2023-04-16T05:08:20.745Z,18.10
2023-04-16T05:10:54.895Z,19.08
2023-04-16T05:13:32.100Z,15.03
2023-04-16T05:15:58.827Z,15.95
2023-04-16T05:18:31.198Z,15.52
2023-04-16T05:20:59.891Z,14.13
2023-04-16T05:23:26.559Z,21.85
2023-04-16T05:26:00.787Z,16.70
2023-04-16T05:31:24.895Z,20.80
2023-04-16T05:33:56.688Z,22.55
2023-04-16T05:36:45.864Z,13.75
2023-04-16T05:39:32.559Z,17.08
2023-04-16T05:42:00.738Z,17.90
2023-04-16T05:47:39.281Z,18.50
2023-04-16T05:50:33.329Z,16.55
2023-04-16T05:53:05.881Z,17.15
2023-04-16T05:55:38.864Z,17.20
2023-04-16T05:58:25.917Z,15.88
2023-04-16T06:01:03.152Z,10.90
2023-04-16T06:03:30.194Z,16.55
2023-04-16T06:06:01.735Z,20.23
2023-04-16T06:08:37.572Z,14.25
2023-04-16T06:11:04.554Z,17.13
2023-04-16T06:13:36.454Z,18.35
2023-04-16T06:16:06.367Z,14.30
2023-04-16T06:18:37.676Z,14.10
2023-04-16T06:21:11.992Z,16.67
2023-04-16T06:23:55.223Z,17.50
2023-04-16T06:26:53.303Z,14.52
2023-04-16T06:29:33.684Z,13.05
2023-04-16T06:32:12.494Z,13.65
2023-04-16T06:34:41.351Z,11.45
2023-04-16T06:37:10.507Z,13.85
2023-04-16T06:39:42.162Z,16.98
2023-04-16T06:42:16.368Z,13.20
2023-04-16T06:44:50.027Z,13.80
2023-04-16T06:47:39.147Z,10.45
2023-04-16T06:50:06.651Z,14.93
2023-04-16T06:52:39.573Z,15.30
2023-04-16T06:55:11.374Z,10.10
2023-04-16T06:57:56.014Z,12.95
2023-04-16T07:00:22.667Z,10.85
2023-04-16T07:02:59.281Z,9.77
2023-04-16T07:05:53.657Z,9.13
2023-04-16T07:08:39.133Z,9.82
2023-04-16T07:13:53.206Z,5.20
2023-04-16T07:16:31.560Z,8.73
2023-04-16T07:19:33.936Z,4.68
2023-04-16T07:25:54.591Z,4.30
2023-04-16T07:28:34.194Z,6.65
2023-04-16T07:31:08.843Z,6.65
2023-04-16T07:33:38.915Z,4.97
2023-04-16T07:36:18.884Z,3.70
2023-04-16T07:38:49.621Z,5.38
2023-04-16T07:41:22.435Z,5.25
2023-04-16T07:43:49.001Z,4.68
2023-04-16T07:46:20.346Z,7.25
2023-04-16T07:49:30.590Z,5.20
2023-04-16T07:52:00.327Z,3.85
2023-04-16T07:54:29.338Z,3.55
2023-04-16T07:57:04.096Z,2.65
2023-04-16T08:00:12.195Z,4.50
2023-04-16T08:02:42.680Z,5.78
2023-04-16T08:05:22.834Z,4.65
2023-04-16T08:14:15.941Z,2.33
2023-04-16T08:16:55.140Z,4.07
2023-04-16T08:19:57.682Z,6.53
2023-04-16T08:23:08.809Z,6.25
2023-04-16T08:26:00.150Z,4.72
2023-04-16T08:29:05.964Z,2.05
2023-04-16T08:32:01.720Z,7.18
2023-04-16T08:34:28.406Z,5.63
2023-04-16T08:41:21.338Z,2.95
2023-04-16T08:44:05.894Z,3.50
2023-04-16T08:47:12.864Z,4.20
2023-04-16T08:50:10.709Z,6.00
2023-04-16T08:56:20.690Z,5.60
2023-04-16T08:59:23.206Z,6.65
2023-04-16T09:01:59.218Z,5.75
2023-04-16T09:07:46.993Z,6.95
2023-04-16T09:10:16.788Z,7.07
2023-04-16T09:12:49.446Z,7.93
2023-04-16T09:15:17.472Z,7.60
2023-04-16T09:17:48.748Z,11.52
2023-04-16T09:20:33.535Z,10.98
2023-04-16T09:23:07.657Z,12.30
2023-04-16T09:25:41.141Z,16.07
2023-04-16T09:28:55.457Z,9.38
2023-04-16T09:34:16.825Z,9.38
2023-04-16T09:36:43.597Z,12.57
2023-04-16T09:39:20.091Z,14.05
2023-04-16T09:41:51.236Z,13.27
2023-04-16T09:44:17.886Z,19.05
2023-04-16T09:46:47.434Z,14.98
2023-04-16T09:52:14.555Z,20.92
2023-04-16T09:54:52.588Z,11.82
2023-04-16T09:57:36.824Z,16.00
2023-04-16T10:00:11.422Z,23.40
2023-04-16T10:02:47.497Z,24.85
2023-04-16T10:05:18.862Z,15.48
2023-04-16T10:07:58.138Z,13.18
2023-04-16T10:10:30.263Z,19.30
2023-04-16T10:12:58.040Z,17.80
2023-04-16T10:15:27.971Z,17.45
2023-04-16T10:17:59.060Z,13.82
2023-04-16T10:20:35.524Z,21.17
2023-04-16T10:23:05.817Z,17.00
2023-04-16T10:25:50.627Z,17.42
2023-04-16T10:28:20.765Z,12.50
2023-04-16T10:30:56.117Z,11.95
2023-04-16T10:33:39.203Z,15.45
2023-04-16T10:36:13.721Z,14.75
2023-04-16T10:39:00.885Z,10.23
2023-04-16T10:41:27.885Z,12.80
2023-04-16T10:44:05.987Z,8.13
2023-04-16T10:46:40.252Z,9.07
2023-04-16T10:49:26.541Z,7.38
2023-04-16T10:52:02.304Z,7.65
2023-04-16T10:54:31.028Z,12.00
2023-04-16T10:57:04.369Z,9.30
2023-04-16T10:59:34.913Z,12.60
2023-04-16T11:02:06.830Z,10.73
2023-04-16T11:04:35.858Z,7.43
2023-04-16T11:07:14.096Z,7.32
2023-04-16T11:10:00.682Z,11.57
2023-04-16T11:12:44.762Z,10.50
2023-04-16T11:15:14.299Z,14.13
2023-04-16T11:17:46.119Z,9.07
2023-04-16T11:20:20.378Z,12.70
2023-04-16T11:22:49.125Z,7.68
2023-04-16T11:25:23.363Z,9.25
2023-04-16T11:27:53.506Z,10.95
2023-04-16T11:30:30.471Z,10.38
2023-04-16T11:32:57.235Z,13.23
2023-04-16T11:35:23.940Z,13.10
2023-04-16T11:37:55.553Z,17.83
2023-04-16T11:40:22.168Z,15.30
2023-04-16T11:42:50.171Z,15.50
2023-04-16T11:45:19.193Z,19.15
2023-04-16T11:47:54.022Z,16.77
2023-04-16T11:50:20.678Z,15.88
2023-04-16T11:52:48.179Z,18.63
2023-04-16T11:55:15.589Z,23.95
2023-04-16T11:57:42.306Z,20.13
2023-04-16T12:00:15.386Z,21.45
2023-04-16T12:02:44.072Z,22.85
2023-04-16T12:05:34.868Z,17.73
2023-04-16T12:08:09.776Z,15.95
2023-04-16T12:10:52.393Z,21.70
2023-04-16T12:13:41.110Z,24.08
2023-04-16T12:16:18.752Z,19.88
2023-04-16T12:19:02.865Z,20.33
2023-04-16T12:21:43.731Z,24.15
2023-04-16T12:24:20.937Z,23.00
2023-04-16T12:26:52.680Z,19.90
2023-04-16T12:29:24.184Z,24.20
2023-04-16T12:31:53.110Z,23.08
2023-04-16T12:34:36.518Z,23.50
2023-04-16T12:37:12.898Z,17.10
2023-04-16T12:39:39.901Z,17.05
2023-04-16T12:42:09.857Z,17.73
2023-04-16T12:44:36.885Z,16.63
2023-04-16T12:47:05.640Z,16.20
2023-04-16T12:49:32.593Z,16.58
2023-04-16T12:51:59.303Z,11.57
2023-04-16T12:54:28.994Z,13.95
2023-04-16T12:56:58.183Z,17.25
2023-04-16T12:59:24.836Z,12.32
2023-04-16T13:01:54.344Z,21.05
2023-04-16T13:04:22.719Z,14.80
2023-04-16T13:06:54.888Z,19.20
2023-04-16T13:09:43.646Z,19.90
2023-04-16T13:12:16.648Z,13.85
2023-04-16T13:18:04.207Z,18.55
2023-04-16T13:26:17.057Z,14.38
2023-04-16T13:29:06.679Z,14.40
2023-04-16T13:31:54.159Z,17.83
2023-04-16T13:34:26.077Z,12.77
2023-04-16T13:39:50.966Z,16.95
2023-04-16T13:42:36.505Z,14.50
2023-04-16T13:45:07.917Z,21.05
2023-04-16T13:47:47.352Z,10.40
2023-04-16T13:50:19.297Z,12.40
2023-04-16T13:52:47.175Z,14.63
2023-04-16T13:55:57.654Z,11.80
2023-04-16T13:59:15.114Z,17.48
2023-04-16T14:01:51.064Z,13.52
2023-04-16T14:04:29.765Z,19.67
2023-04-16T14:07:43.596Z,17.38
2023-04-16T14:10:17.713Z,16.00
2023-04-16T14:12:46.442Z,14.27
2023-04-16T14:15:22.258Z,13.95
2023-04-16T14:17:51.799Z,15.60
2023-04-16T14:20:19.324Z,12.43
2023-04-16T14:22:46.719Z,13.95
2023-04-16T14:25:13.500Z,14.38
2023-04-16T14:27:41.223Z,18.40
2023-04-16T14:30:08.495Z,16.73
2023-04-16T14:32:36.261Z,12.48
2023-04-16T14:35:06.662Z,17.73
2023-04-16T14:37:38.294Z,18.08
2023-04-16T14:40:08.559Z,15.43
2023-04-16T14:42:36.704Z,16.33
2023-04-16T14:45:07.734Z,20.20
2023-04-16T14:47:35.138Z,14.65
2023-04-16T14:50:02.635Z,20.45
2023-04-16T14:52:31.471Z,19.00
2023-04-16T14:54:58.194Z,16.23
2023-04-16T14:57:25.089Z,22.83
2023-04-16T14:59:51.758Z,16.00
2023-04-16T15:02:18.586Z,16.00
2023-04-16T15:04:47.659Z,18.70
2023-04-16T15:07:14.299Z,23.38
2023-04-16T15:09:41.313Z,17.52
2023-04-16T15:12:08.105Z,20.38
2023-04-16T15:14:43.590Z,27.17
2023-04-16T15:17:15.521Z,25.08
2023-04-16T15:19:42.155Z,23.05
2023-04-16T15:22:11.619Z,24.00
2023-04-16T15:24:40.784Z,18.73
2023-04-16T15:27:08.514Z,15.93
2023-04-16T15:29:39.849Z,16.92
2023-04-16T15:32:07.103Z,22.10
2023-04-16T15:34:36.148Z,20.75
2023-04-16T15:37:05.022Z,24.65
2023-04-16T15:39:31.652Z,22.02
2023-04-16T15:42:02.209Z,23.92
2023-04-16T15:44:31.466Z,16.70
2023-04-16T15:46:58.275Z,19.27
2023-04-16T15:49:25.193Z,21.15
2023-04-16T15:51:52.645Z,19.05
2023-04-16T15:54:19.379Z,24.42
2023-04-16T15:56:46.913Z,22.15
2023-04-16T15:59:13.790Z,17.35
2023-04-16T16:01:40.932Z,14.30
2023-04-16T16:04:11.406Z,18.02
2023-04-16T16:06:38.240Z,18.58
2023-04-16T16:09:05.024Z,15.48
2023-04-16T16:11:32.772Z,12.25
2023-04-16T16:14:04.339Z,17.00
2023-04-16T16:16:31.749Z,20.60
2023-04-16T16:18:58.528Z,17.27
2023-04-16T16:21:25.109Z,15.52
2023-04-16T16:23:51.746Z,19.50
2023-04-16T16:26:18.713Z,17.45
2023-04-16T16:28:46.106Z,18.85
2023-04-16T16:31:12.839Z,15.52
2023-04-16T16:33:40.914Z,19.77
2023-04-16T16:36:10.962Z,12.35
2023-04-16T16:38:38.310Z,19.08
2023-04-16T16:41:04.959Z,15.80
2023-04-16T16:43:31.609Z,14.70
2023-04-16T16:45:58.235Z,14.10
2023-04-16T16:48:24.837Z,10.82
2023-04-16T16:50:51.405Z,15.10
2023-04-16T16:53:18.155Z,15.43
2023-04-16T16:55:44.773Z,14.80
2023-04-16T16:58:11.668Z,24.45
2023-04-16T17:00:38.295Z,16.25
2023-04-16T17:03:05.109Z,20.90
2023-04-16T17:05:31.826Z,20.02
2023-04-16T17:07:58.704Z,18.33
2023-04-16T17:10:25.356Z,19.33
2023-04-16T17:12:52.054Z,19.50
2023-04-16T17:15:21.457Z,13.60
2023-04-16T17:17:48.870Z,18.77
2023-04-16T17:20:15.750Z,16.83
2023-04-16T17:22:42.666Z,16.20
2023-04-16T17:25:09.530Z,25.45
2023-04-16T17:27:36.268Z,24.08
2023-04-16T17:30:05.437Z,22.48
2023-04-16T17:32:32.995Z,21.63
2023-04-16T17:35:01.116Z,17.42
2023-04-16T17:37:27.845Z,18.92
2023-04-16T17:39:54.604Z,20.85
2023-04-16T17:42:21.754Z,21.65
2023-04-16T17:44:48.387Z,22.38
2023-04-16T17:47:15.044Z,27.63
2023-04-16T17:49:41.629Z,24.02
2023-04-16T17:52:08.214Z,18.48
2023-04-16T17:54:34.822Z,21.00
2023-04-16T17:57:02.125Z,22.98
2023-04-16T17:59:28.913Z,16.15
2023-04-16T18:01:56.625Z,25.33
2023-04-16T18:04:23.603Z,20.48
2023-04-16T18:06:50.527Z,23.70
2023-04-16T18:09:17.363Z,26.88
2023-04-16T18:11:43.905Z,21.67
2023-04-16T18:14:13.268Z,20.58
2023-04-16T18:16:39.907Z,19.55
2023-04-16T18:19:06.787Z,24.20
2023-04-16T18:21:34.006Z,17.25
2023-04-16T18:24:03.425Z,20.83
2023-04-16T18:26:30.113Z,25.27
2023-04-16T18:28:57.078Z,22.17
2023-04-16T18:31:23.798Z,21.90
2023-04-16T18:33:57.461Z,15.93
2023-04-16T18:36:26.707Z,20.50
2023-04-16T18:39:01.551Z,20.98
2023-04-16T18:41:41.688Z,17.65
2023-04-16T18:44:10.710Z,19.63
2023-04-16T18:46:37.447Z,23.05
2023-04-16T18:49:04.131Z,24.30
2023-04-16T18:51:30.821Z,21.77
2023-04-16T18:53:57.408Z,25.92
2023-04-16T18:56:24.081Z,19.40
2023-04-16T18:58:55.466Z,27.63
2023-04-16T19:01:22.237Z,24.02
2023-04-16T19:03:48.974Z,23.40
2023-04-16T19:06:15.658Z,23.60
2023-04-16T19:08:42.182Z,22.13
2023-04-16T19:11:08.716Z,27.88
2023-04-16T19:13:35.338Z,23.50
2023-04-16T19:16:02.613Z,22.50
2023-04-16T19:18:29.222Z,22.98
2023-04-16T19:21:00.442Z,23.42
2023-04-16T19:23:27.836Z,26.15
2023-04-16T19:25:56.290Z,22.25
2023-04-16T19:28:23.884Z,23.95
2023-04-16T19:30:51.412Z,23.58
2023-04-16T19:33:18.665Z,24.80
2023-04-16T19:35:46.265Z,26.08
2023-04-16T19:38:12.910Z,21.75
2023-04-16T19:40:46.728Z,23.08
2023-04-16T19:43:13.689Z,22.63
2023-04-16T19:45:46.694Z,21.23
2023-04-16T19:48:13.825Z,21.70
2023-04-16T19:50:41.926Z,23.63
2023-04-16T19:53:17.234Z,26.63
2023-04-16T19:55:43.910Z,25.25
2023-04-16T19:58:10.733Z,26.27
2023-04-16T20:00:42.148Z,24.80
2023-04-16T20:03:09.378Z,24.90
2023-04-16T20:05:37.304Z,26.73
2023-04-16T20:08:04.061Z,33.63
2023-04-16T20:10:31.633Z,28.48
2023-04-16T20:12:59.916Z,27.10
2023-04-16T20:15:27.263Z,27.27
2023-04-16T20:17:55.386Z,25.40
2023-04-16T20:20:23.701Z,22.55
2023-04-16T20:22:50.782Z,22.08
2023-04-16T20:25:20.730Z,26.55
2023-04-16T20:27:47.374Z,25.08
2023-04-16T20:30:14.245Z,31.60
2023-04-16T20:32:40.843Z,23.65
2023-04-16T20:35:10.619Z,25.50
2023-04-16T20:37:38.568Z,23.75
2023-04-16T20:40:13.926Z,21.45
2023-04-16T20:42:41.318Z,24.83
2023-04-16T20:45:08.811Z,22.92
2023-04-16T20:47:35.442Z,24.27
2023-04-16T20:50:02.891Z,22.42
2023-04-16T20:52:29.548Z,26.52
2023-04-16T20:54:56.313Z,22.75
2023-04-16T20:57:22.929Z,26.95
2023-04-16T20:59:49.574Z,25.27
2023-04-16T21:02:16.337Z,20.90
2023-04-16T21:04:43.188Z,25.05
2023-04-16T21:07:09.752Z,23.33
2023-04-16T21:09:36.343Z,23.52
2023-04-16T21:12:02.937Z,24.25
2023-04-16T21:14:29.505Z,28.70
2023-04-16T21:16:56.052Z,25.50
2023-04-16T21:19:22.630Z,29.00
2023-04-16T21:21:49.301Z,24.33
2023-04-16T21:24:15.955Z,27.23
2023-04-16T21:26:42.534Z,29.52
2023-04-16T21:29:09.150Z,29.67
2023-04-16T21:31:36.093Z,20.95
2023-04-16T21:34:02.727Z,25.50
2023-04-16T21:36:32.021Z,22.33
2023-04-16T21:38:58.716Z,25.27
2023-04-16T21:41:25.300Z,29.58
2023-04-16T21:43:51.849Z,23.20
2023-04-16T21:46:18.451Z,23.63
2023-04-16T21:48:45.090Z,27.98
2023-04-16T21:51:13.429Z,31.30
2023-04-16T21:53:40.084Z,26.63
2023-04-16T21:56:07.178Z,28.13
2023-04-16T21:58:33.761Z,19.05
2023-04-16T22:01:00.374Z,22.70
2023-04-16T22:03:28.188Z,23.67
2023-04-16T22:06:00.946Z,19.33
2023-04-16T22:08:31.052Z,22.38
2023-04-16T22:11:02.273Z,22.35
2023-04-16T22:13:32.342Z,22.25
2023-04-16T22:16:02.685Z,23.88
2023-04-16T22:18:33.077Z,20.45
2023-04-16T22:21:00.063Z,21.45
2023-04-16T22:23:26.647Z,22.88
2023-04-16T22:25:55.493Z,28.33
2023-04-16T22:28:22.779Z,18.35
2023-04-16T22:30:49.528Z,25.88
2023-04-16T22:33:16.316Z,28.70
2023-04-16T22:35:42.920Z,28.67
2023-04-16T22:38:10.268Z,25.48
2023-04-16T22:40:36.839Z,29.52
2023-04-16T22:43:03.472Z,31.33
2023-04-16T22:45:30.065Z,23.95
2023-04-16T22:47:56.774Z,25.30
2023-04-16T22:50:23.357Z,22.85
2023-04-16T22:52:49.990Z,29.48
2023-04-16T22:55:16.793Z,22.80
2023-04-16T22:57:43.423Z,40.13
2023-04-16T23:00:15.845Z,25.58
2023-04-16T23:02:42.956Z,24.98
2023-04-16T23:05:09.783Z,26.45
2023-04-16T23:07:36.490Z,27.85
2023-04-16T23:10:03.234Z,24.08
2023-04-16T23:12:29.817Z,26.00
2023-04-16T23:14:56.416Z,28.30
2023-04-16T23:17:23.110Z,28.38
2023-04-16T23:19:49.695Z,29.40
2023-04-16T23:22:16.257Z,27.67
2023-04-16T23:24:42.759Z,26.52
2023-04-16T23:27:09.404Z,28.52
2023-04-16T23:29:36.086Z,28.65
2023-04-16T23:32:02.686Z,29.85
2023-04-16T23:34:29.419Z,27.23
2023-04-16T23:36:56.010Z,25.67
2023-04-16T23:39:22.566Z,29.52
2023-04-16T23:41:49.144Z,29.30
2023-04-16T23:44:16.491Z,33.95
2023-04-16T23:46:43.038Z,29.05
2023-04-16T23:49:09.839Z,27.65
2023-04-16T23:51:37.004Z,26.92
2023-04-16T23:54:03.637Z,25.00
2023-04-16T23:56:30.230Z,26.50
2023-04-16T23:58:56.889Z,26.88
